Time;durP1;ratioP1;P1;durP2;ratioP2;P2;SDS_P1;SDS_P2;PMS_P1;PMS_P2;Temp;Humidity;BMP_temperature;BMP_pressure;BME280_temperature;BME280_humidity;BME280_pressure;Samples;Min_cycle;Max_cycle;Signal;HPM_P1;HPM_P2
2024/04/06 00:02:04;;;;;;;3.67;1.88;;;15.80;99.90;;;;;;5074176;28;20036;-87
2024/04/06 00:04:31;;;;;;;4.07;1.92;;;15.80;99.90;;;;;;5074382;28;20070;-88
2024/04/06 00:06:56;;;;;;;3.28;1.73;;;15.70;99.90;;;;;;5072511;28;20078;-87
2024/04/06 00:09:23;;;;;;;3.72;2.03;;;15.60;99.90;;;;;;5089298;28;20028;-87
2024/04/06 00:11:48;;;;;;;4.55;1.73;;;15.50;99.90;;;;;;5075589;28;20354;-87
2024/04/06 00:14:17;;;;;;;7.88;2.05;;;15.40;99.90;;;;;;5086177;28;20074;-87
2024/04/06 00:16:43;;;;;;;4.22;1.90;;;15.30;99.90;;;;;;5082964;28;20055;-87
2024/04/06 00:19:09;;;;;;;4.90;1.90;;;15.30;99.90;;;;;;5076364;28;20055;-87
2024/04/06 00:21:34;;;;;;;4.18;1.73;;;15.30;99.90;;;;;;5065649;28;20513;-86
2024/04/06 00:24:00;;;;;;;6.43;2.10;;;15.30;99.90;;;;;;5062578;28;20374;-87
2024/04/06 00:26:25;;;;;;;5.10;1.63;;;15.30;99.90;;;;;;5052920;28;20070;-87
2024/04/06 00:28:51;;;;;;;6.38;1.95;;;15.20;99.90;;;;;;5052543;28;20500;-87
2024/04/06 00:31:16;;;;;;;3.70;1.85;;;15.10;99.90;;;;;;5055979;28;20131;-87
2024/04/06 00:33:42;;;;;;;2.67;1.88;;;15.00;99.90;;;;;;5057578;28;20017;-86
2024/04/06 00:36:08;;;;;;;2.78;2.00;;;14.90;99.90;;;;;;5057048;28;20021;-86
2024/04/06 00:38:33;;;;;;;6.07;1.83;;;14.90;99.90;;;;;;5056439;28;20428;-86
2024/04/06 00:40:59;;;;;;;6.72;2.00;;;14.90;99.90;;;;;;5058176;28;20025;-87
2024/04/06 00:43:27;;;;;;;2.67;1.75;;;14.90;99.90;;;;;;5057295;28;20370;-86
2024/04/06 00:45:52;;;;;;;3.88;1.65;;;14.80;99.90;;;;;;5073919;28;20457;-86
2024/04/06 00:48:19;;;;;;;2.97;1.70;;;14.80;99.90;;;;;;5060445;28;20028;-86
2024/04/06 00:50:45;;;;;;;3.13;1.77;;;14.70;99.90;;;;;;5059331;28;20025;-86
2024/04/06 00:53:10;;;;;;;2.70;1.67;;;14.60;99.90;;;;;;5059961;28;20078;-85
2024/04/06 00:55:36;;;;;;;5.75;2.08;;;14.50;99.90;;;;;;5065004;28;20103;-86
2024/04/06 00:58:02;;;;;;;3.83;1.80;;;14.50;99.90;;;;;;5098253;28;20024;-86
2024/04/06 01:00:27;;;;;;;6.50;2.00;;;14.50;99.90;;;;;;5080351;28;20056;-86
2024/04/06 01:02:53;;;;;;;3.72;1.70;;;14.50;99.90;;;;;;5079602;28;20631;-86
2024/04/06 01:05:19;;;;;;;5.03;1.90;;;14.50;99.90;;;;;;5079787;28;20039;-86
2024/04/06 01:07:45;;;;;;;4.40;1.80;;;14.40;99.90;;;;;;5079590;28;20031;-86
2024/04/06 01:10:12;;;;;;;4.07;1.75;;;14.40;99.90;;;;;;5079906;28;20024;-90
2024/04/06 01:12:37;;;;;;;4.20;1.85;;;14.40;99.90;;;;;;5097805;28;20016;-89
2024/04/06 01:15:04;;;;;;;6.35;1.88;;;14.20;99.90;;;;;;5079820;28;20016;-90
2024/04/06 01:17:29;;;;;;;4.10;2.15;;;14.10;99.90;;;;;;5079925;28;20031;-89
2024/04/06 01:19:55;;;;;;;3.00;1.30;;;14.10;99.90;;;;;;5097718;28;20537;-89
2024/04/06 01:22:21;;;;;;;3.53;1.92;;;14.10;99.90;;;;;;5098053;28;20039;-84
2024/04/06 01:24:46;;;;;;;3.83;1.70;;;14.20;99.90;;;;;;5096821;28;20020;-88
2024/04/06 01:27:12;;;;;;;3.03;1.60;;;14.10;99.90;;;;;;5079227;28;20023;-87
2024/04/06 01:29:37;;;;;;;3.10;1.80;;;14.10;99.90;;;;;;5078991;28;20031;-85
2024/04/06 01:32:04;;;;;;;11.70;2.33;;;14.10;99.90;;;;;;5079385;28;20020;-88
2024/04/06 01:34:29;;;;;;;3.83;2.15;;;13.90;99.90;;;;;;5079498;28;20016;-87
2024/04/06 01:36:55;;;;;;;3.15;1.73;;;13.80;99.90;;;;;;5096526;28;20031;-88
2024/04/06 01:39:20;;;;;;;3.72;1.98;;;13.70;99.90;;;;;;5079436;28;20119;-87
2024/04/06 01:41:48;;;;;;;3.22;1.63;;;13.70;99.90;;;;;;5078987;28;20350;-87
2024/04/06 01:44:14;;;;;;;4.03;1.73;;;13.70;99.90;;;;;;5079171;28;20024;-86
2024/04/06 01:46:40;;;;;;;3.00;1.73;;;13.60;99.90;;;;;;5096681;28;20476;-86
2024/04/06 01:49:05;;;;;;;3.75;1.80;;;13.60;99.90;;;;;;5079415;28;20023;-87
2024/04/06 01:51:32;;;;;;;3.97;1.90;;;13.50;99.90;;;;;;5079164;28;20381;-87
2024/04/06 01:53:58;;;;;;;2.80;1.83;;;13.60;99.90;;;;;;5078575;28;20020;-87
2024/04/06 01:56:26;;;;;;;2.22;1.50;;;13.60;99.90;;;;;;5096956;28;20137;-88
2024/04/06 01:58:52;;;;;;;3.95;2.10;;;13.60;99.90;;;;;;5078398;28;20028;-88
2024/04/06 02:01:17;;;;;;;2.63;1.70;;;13.60;99.90;;;;;;5078805;28;20029;-87
2024/04/06 02:03:43;;;;;;;4.68;1.83;;;13.50;99.90;;;;;;5078614;28;20110;-86
2024/04/06 02:06:09;;;;;;;6.00;2.00;;;13.50;99.90;;;;;;5079109;28;20023;-87
2024/04/06 02:08:38;;;;;;;3.28;1.85;;;13.50;99.90;;;;;;5078497;28;20020;-87
2024/04/06 02:11:04;;;;;;;4.00;1.88;;;13.60;99.90;;;;;;5077917;28;20020;-85
2024/04/06 02:13:30;;;;;;;8.00;1.75;;;13.50;99.90;;;;;;5096126;28;20024;-86
2024/04/06 02:15:56;;;;;;;6.65;2.20;;;13.50;99.90;;;;;;5077802;28;20036;-86
2024/04/06 02:18:22;;;;;;;4.10;1.90;;;13.50;99.90;;;;;;5078627;28;20020;-86
2024/04/06 02:20:48;;;;;;;5.78;2.00;;;13.50;99.90;;;;;;5078027;28;20036;-86
2024/04/06 02:23:14;;;;;;;4.97;2.10;;;13.60;99.90;;;;;;5078831;28;20107;-86
2024/04/06 02:25:40;;;;;;;3.80;1.88;;;13.60;99.90;;;;;;5096240;28;20055;-90
2024/04/06 02:28:05;;;;;;;6.28;2.20;;;13.70;99.90;;;;;;5096551;28;20042;-91
2024/04/06 02:30:31;;;;;;;5.05;1.92;;;13.60;99.90;;;;;;5078790;28;20528;-91
2024/04/06 02:32:57;;;;;;;3.95;1.80;;;13.60;99.90;;;;;;5077638;28;20139;-90
2024/04/06 02:35:23;;;;;;;3.38;1.50;;;13.60;99.90;;;;;;5077937;28;20024;-91
2024/04/06 02:37:49;;;;;;;3.60;1.58;;;13.60;99.90;;;;;;5077476;28;20020;-92
2024/04/06 02:40:14;;;;;;;3.90;1.55;;;13.60;99.90;;;;;;5078111;28;20082;-90
2024/04/06 02:42:40;;;;;;;5.75;1.60;;;13.60;99.90;;;;;;5077576;28;20583;-85
2024/04/06 02:45:07;;;;;;;3.53;1.55;;;13.60;99.90;;;;;;5095451;28;20047;-86
2024/04/06 02:47:33;;;;;;;4.82;1.45;;;13.60;99.90;;;;;;5095635;28;20028;-86
2024/04/06 02:49:59;;;;;;;2.28;1.52;;;13.60;99.90;;;;;;5094670;28;20031;-85
2024/04/06 02:52:24;;;;;;;5.82;1.95;;;13.50;99.90;;;;;;5094810;28;20098;-85
2024/04/06 02:54:50;;;;;;;1.65;1.40;;;13.50;99.90;;;;;;5076715;28;20024;-85
2024/04/06 02:57:18;;;;;;;3.10;1.55;;;13.50;99.90;;;;;;5077337;28;20057;-85
2024/04/06 02:59:43;;;;;;;4.32;1.70;;;13.40;99.90;;;;;;5076988;28;20032;-85
2024/04/06 03:02:09;;;;;;;1.92;1.30;;;13.30;99.90;;;;;;5095383;28;20515;-87
2024/04/06 03:04:35;;;;;;;4.78;1.38;;;13.20;99.90;;;;;;5077800;28;20032;-87
2024/04/06 03:07:01;;;;;;;6.38;1.63;;;13.30;99.90;;;;;;5077704;28;20089;-87
2024/04/06 03:09:27;;;;;;;1.88;1.48;;;13.20;99.90;;;;;;5077836;28;20051;-87
2024/04/06 03:11:53;;;;;;;2.75;1.50;;;13.10;99.90;;;;;;5077083;28;20373;-87
2024/04/06 03:14:18;;;;;;;1.92;1.25;;;13.10;99.90;;;;;;5095362;28;20024;-87
2024/04/06 03:16:44;;;;;;;3.97;1.50;;;13.10;99.90;;;;;;5095355;28;20462;-85
2024/04/06 03:19:10;;;;;;;2.10;1.52;;;13.10;99.90;;;;;;5077644;28;20080;-87
2024/04/06 03:21:35;;;;;;;2.20;1.58;;;13.10;99.90;;;;;;5078803;28;20026;-87
2024/04/06 03:24:01;;;;;;;4.10;1.33;;;13.00;99.90;;;;;;5077728;28;20119;-87
2024/04/06 03:26:26;;;;;;;3.38;1.70;;;13.00;99.90;;;;;;5078147;28;20032;-88
2024/04/06 03:28:52;;;;;;;5.00;1.33;;;12.90;99.90;;;;;;5077665;28;20135;-87
2024/04/06 03:31:18;;;;;;;3.78;1.40;;;12.80;99.90;;;;;;5077483;28;20511;-87
2024/04/06 03:33:44;;;;;;;5.88;1.83;;;12.80;99.90;;;;;;5077399;28;20027;-86
2024/04/06 03:36:10;;;;;;;3.15;1.48;;;12.70;99.90;;;;;;5076977;28;20020;-88
2024/04/06 03:38:35;;;;;;;2.95;1.50;;;12.80;99.90;;;;;;5077199;28;20026;-87
2024/04/06 03:41:01;;;;;;;3.42;1.70;;;12.70;99.90;;;;;;5076272;28;20043;-87
2024/04/06 03:43:27;;;;;;;5.45;1.40;;;12.60;99.90;;;;;;5077261;28;20074;-86
2024/04/06 03:45:54;;;;;;;3.63;1.48;;;12.70;99.90;;;;;;5076052;28;20051;-88
2024/04/06 03:48:21;;;;;;;5.40;1.60;;;12.70;99.90;;;;;;5077606;28;20024;-88
2024/04/06 03:50:47;;;;;;;5.75;1.70;;;12.60;99.90;;;;;;5077914;28;20020;-87
2024/04/06 03:53:12;;;;;;;3.90;1.60;;;12.60;99.90;;;;;;5077090;28;20035;-88
2024/04/06 03:55:38;;;;;;;1.80;1.13;;;12.50;99.90;;;;;;5076821;28;20027;-87
2024/04/06 03:58:04;;;;;;;2.72;1.50;;;12.50;99.90;;;;;;5094035;28;20091;-87
2024/04/06 04:00:29;;;;;;;2.97;1.35;;;12.40;99.90;;;;;;5076842;28;20095;-88
2024/04/06 04:02:55;;;;;;;3.67;1.10;;;12.50;99.90;;;;;;5076674;28;20020;-89
2024/04/06 04:05:20;;;;;;;5.15;1.40;;;12.50;99.90;;;;;;5076149;28;20186;-87
2024/04/06 04:07:46;;;;;;;3.97;1.60;;;12.30;99.90;;;;;;5076229;28;20430;-84
2024/04/06 04:10:11;;;;;;;2.17;1.58;;;12.30;99.90;;;;;;5076645;28;20035;-86
2024/04/06 04:12:37;;;;;;;3.40;1.55;;;12.20;99.90;;;;;;5077023;28;20047;-87
2024/04/06 04:15:10;;;;;;;4.38;1.48;;;12.20;99.90;;;;;;5075814;28;20024;-86
2024/04/06 04:17:35;;;;;;;2.17;1.67;;;12.30;99.90;;;;;;5094232;28;20032;-86
2024/04/06 04:20:04;;;;;;;3.53;1.40;;;12.30;99.90;;;;;;5093593;28;20035;-87
2024/04/06 04:22:30;;;;;;;3.60;1.45;;;12.40;99.90;;;;;;5094468;28;20027;-87
2024/04/06 04:24:57;;;;;;;2.67;1.35;;;12.40;99.90;;;;;;5075960;28;20024;-87
2024/04/06 04:27:22;;;;;;;3.88;1.55;;;12.40;99.90;;;;;;5076579;28;20422;-87
2024/04/06 04:29:48;;;;;;;2.13;1.38;;;12.30;99.90;;;;;;5076085;28;20032;-86
2024/04/06 04:32:13;;;;;;;2.65;1.30;;;12.20;99.90;;;;;;5076949;28;20069;-88
2024/04/06 04:34:39;;;;;;;2.63;1.42;;;12.10;99.90;;;;;;5076784;28;20012;-88
2024/04/06 04:37:05;;;;;;;4.45;1.30;;;12.00;99.90;;;;;;5093762;28;20032;-86
2024/04/06 04:39:31;;;;;;;1.98;1.40;;;11.90;99.90;;;;;;5076476;28;20086;-86
2024/04/06 04:41:57;;;;;;;3.22;1.50;;;11.90;99.90;;;;;;5094018;28;20024;-85
2024/04/06 04:44:23;;;;;;;1.92;1.15;;;11.90;99.90;;;;;;5075788;28;20063;-85
2024/04/06 04:46:48;;;;;;;2.97;1.10;;;11.80;99.90;;;;;;5076167;28;20039;-83
2024/04/06 04:49:14;;;;;;;3.97;1.30;;;11.80;99.90;;;;;;5093949;28;20031;-85
2024/04/06 04:51:39;;;;;;;2.92;1.38;;;11.80;99.90;;;;;;5076515;28;20094;-86
2024/04/06 04:54:05;;;;;;;4.10;1.30;;;11.80;99.90;;;;;;5078383;28;20024;-85
2024/04/06 04:56:30;;;;;;;3.33;1.42;;;11.70;99.90;;;;;;5097179;28;20112;-88
2024/04/06 04:58:56;;;;;;;5.78;1.75;;;11.80;99.90;;;;;;5076725;28;20024;-85
2024/04/06 05:01:22;;;;;;;3.20;1.88;;;11.70;99.90;;;;;;5098752;28;20016;-87
2024/04/06 05:03:47;;;;;;;1.95;1.58;;;11.80;99.90;;;;;;5094496;28;20150;-86
2024/04/06 05:06:13;;;;;;;3.15;1.50;;;11.70;99.90;;;;;;5076966;28;20024;-87
2024/04/06 05:08:39;;;;;;;4.55;1.95;;;11.70;99.90;;;;;;5080266;28;20073;-87
2024/04/06 05:11:04;;;;;;;1.50;1.40;;;11.60;99.90;;;;;;5075369;28;20372;-87
2024/04/06 05:13:30;;;;;;;2.78;1.30;;;11.70;99.90;;;;;;5075762;28;20024;-86
2024/04/06 05:15:57;;;;;;;4.03;1.33;;;11.70;99.90;;;;;;5076288;28;20119;-86
2024/04/06 05:18:23;;;;;;;1.33;1.10;;;11.60;99.90;;;;;;5079648;28;20020;-87
2024/04/06 05:20:57;;;;;;;4.22;1.50;;;11.70;99.90;;;;;;5079871;28;20032;-86
2024/04/06 05:23:23;;;;;;;2.85;1.50;;;11.60;99.90;;;;;;5079953;28;20023;-86
2024/04/06 05:25:50;;;;;;;3.67;1.77;;;11.60;99.90;;;;;;5079715;28;20020;-86
2024/04/06 05:28:17;;;;;;;4.93;1.73;;;11.60;99.90;;;;;;5079595;28;20020;-86
2024/04/06 05:30:44;;;;;;;3.58;1.55;;;11.60;99.90;;;;;;5079848;28;20110;-86
2024/04/06 05:33:10;;;;;;;3.00;1.77;;;11.70;99.90;;;;;;5096969;28;20146;-86
2024/04/06 05:35:35;;;;;;;2.97;1.50;;;11.80;99.90;;;;;;5097268;28;20449;-86
2024/04/06 05:38:01;;;;;;;3.05;1.63;;;11.90;99.90;;;;;;5079088;28;20028;-86
2024/04/06 05:40:26;;;;;;;4.10;1.90;;;11.90;99.90;;;;;;5081134;28;20334;-85
2024/04/06 05:42:52;;;;;;;4.63;1.63;;;11.90;99.90;;;;;;5079749;28;20047;-86
2024/04/06 05:45:18;;;;;;;2.83;1.80;;;11.90;99.90;;;;;;5097942;28;20089;-87
2024/04/06 05:47:43;;;;;;;5.00;1.75;;;12.00;99.90;;;;;;5097006;28;20081;-86
2024/04/06 05:50:09;;;;;;;4.97;1.48;;;12.00;99.90;;;;;;5078876;28;20036;-86
2024/04/06 05:52:35;;;;;;;2.83;1.85;;;12.00;99.90;;;;;;5078916;28;20027;-86
2024/04/06 05:55:02;;;;;;;3.88;1.45;;;11.90;99.90;;;;;;5078359;28;20024;-86
2024/04/06 05:57:28;;;;;;;3.42;1.90;;;11.90;99.90;;;;;;5079283;28;20016;-86
2024/04/06 05:59:54;;;;;;;3.90;1.50;;;12.00;99.90;;;;;;5079168;28;20475;-86
2024/04/06 06:02:19;;;;;;;2.13;1.70;;;12.00;99.90;;;;;;5078812;28;20023;-84
2024/04/06 06:04:45;;;;;;;4.25;1.55;;;12.10;99.90;;;;;;5078644;28;20020;-86
2024/04/06 06:07:10;;;;;;;2.22;1.50;;;12.10;99.90;;;;;;5095603;28;20035;-86
2024/04/06 06:09:36;;;;;;;3.75;1.45;;;12.10;99.90;;;;;;5078887;28;20028;-86
2024/04/06 06:12:02;;;;;;;5.07;1.85;;;12.10;99.90;;;;;;5095735;28;20028;-86
2024/04/06 06:14:29;;;;;;;3.38;1.92;;;12.20;99.90;;;;;;5078336;28;20364;-86
2024/04/06 06:16:55;;;;;;;2.58;1.50;;;12.20;99.90;;;;;;5095504;28;20024;-86
2024/04/06 06:19:21;;;;;;;2.47;1.70;;;12.20;99.90;;;;;;5096265;28;20032;-89
2024/04/06 06:21:46;;;;;;;4.72;1.83;;;12.20;99.90;;;;;;5078697;28;20020;-91
2024/04/06 06:24:12;;;;;;;4.70;1.83;;;12.20;99.90;;;;;;5078353;28;20076;-91
2024/04/06 06:26:37;;;;;;;2.47;1.52;;;12.40;99.90;;;;;;5096399;28;20020;-92
2024/04/06 06:29:03;;;;;;;2.95;1.83;;;12.40;99.90;;;;;;5077293;28;20472;-92
2024/04/06 06:31:28;;;;;;;2.75;1.90;;;12.50;99.90;;;;;;5078735;28;20141;-91
2024/04/06 06:33:56;;;;;;;4.22;1.95;;;12.60;99.90;;;;;;5078682;28;20020;-89
2024/04/06 06:36:21;;;;;;;3.25;1.80;;;12.60;99.90;;;;;;5078302;28;20116;-91
2024/04/06 06:38:48;;;;;;;6.10;1.88;;;12.70;99.90;;;;;;5078920;28;20024;-91
2024/04/06 06:41:13;;;;;;;3.70;1.50;;;12.80;99.90;;;;;;5080881;28;20012;-89
2024/04/06 06:43:39;;;;;;;3.55;1.48;;;12.90;99.90;;;;;;5080806;28;20027;-85
2024/04/06 06:46:05;;;;;;;2.13;1.10;;;13.00;99.90;;;;;;5076951;28;20530;-87
2024/04/06 06:48:30;;;;;;;1.70;1.20;;;13.00;99.90;;;;;;5095551;28;20096;-88
2024/04/06 06:50:56;;;;;;;3.97;1.75;;;13.10;99.90;;;;;;5077808;28;20032;-86
2024/04/06 06:53:21;;;;;;;2.35;1.20;;;13.20;99.90;;;;;;5078483;28;20028;-88
2024/04/06 06:55:47;;;;;;;2.50;1.30;;;13.20;99.90;;;;;;5078320;28;20020;-84
2024/04/06 06:58:13;;;;;;;2.35;1.40;;;13.30;99.90;;;;;;5077835;28;20028;-84
2024/04/06 07:00:38;;;;;;;4.13;1.20;;;13.30;99.90;;;;;;5078703;28;20350;-84
2024/04/06 07:03:04;;;;;;;4.13;1.27;;;13.40;99.90;;;;;;5079903;28;20024;-84
2024/04/06 07:05:30;;;;;;;2.65;1.42;;;13.50;99.90;;;;;;5086123;28;20035;-87
2024/04/06 07:07:58;;;;;;;2.92;1.48;;;13.60;99.90;;;;;;5085358;28;20036;-89
2024/04/06 07:10:24;;;;;;;3.35;1.23;;;13.70;99.90;;;;;;5088212;28;20020;-85
2024/04/06 07:12:49;;;;;;;4.00;1.00;;;13.80;99.90;;;;;;5101837;28;20045;-86
2024/04/06 07:15:15;;;;;;;2.83;1.33;;;13.80;99.90;;;;;;5108178;28;20038;-85
2024/04/06 07:17:41;;;;;;;4.70;1.10;;;13.90;99.90;;;;;;5085103;28;20036;-84
2024/04/06 07:20:06;;;;;;;2.00;0.98;;;14.00;99.90;;;;;;5082717;28;20461;-85
2024/04/06 07:22:32;;;;;;;2.05;0.95;;;14.00;99.90;;;;;;5099796;28;20019;-84
2024/04/06 07:24:57;;;;;;;3.13;1.20;;;14.00;99.90;;;;;;5111227;28;20023;-84
2024/04/06 07:27:23;;;;;;;1.17;0.88;;;14.10;99.90;;;;;;5079302;28;20472;-89
2024/04/06 07:29:49;;;;;;;3.10;1.10;;;14.10;99.90;;;;;;5099306;28;20035;-86
2024/04/06 07:32:14;;;;;;;1.67;1.00;;;14.20;99.90;;;;;;5114871;28;20034;-86
2024/04/06 07:34:40;;;;;;;4.88;1.50;;;14.20;99.90;;;;;;5097739;28;20410;-88
2024/04/06 07:37:05;;;;;;;5.68;1.10;;;14.30;99.90;;;;;;5097043;28;20073;-86
2024/04/06 07:39:31;;;;;;;2.05;1.05;;;14.30;99.90;;;;;;5092203;28;20035;-87
2024/04/06 07:41:56;;;;;;;1.92;1.20;;;14.30;99.90;;;;;;5097228;28;20080;-85
2024/04/06 07:44:23;;;;;;;2.53;1.08;;;14.40;99.90;;;;;;5114611;28;20048;-86
2024/04/06 07:46:49;;;;;;;3.17;1.17;;;14.40;99.90;;;;;;5115629;28;20023;-85
2024/04/06 07:49:14;;;;;;;3.35;1.30;;;14.40;99.90;;;;;;5096821;28;20035;-86
2024/04/06 07:51:41;;;;;;;3.40;1.27;;;14.50;99.90;;;;;;5114996;28;20023;-86
2024/04/06 07:54:07;;;;;;;3.75;1.25;;;14.50;99.90;;;;;;5096329;28;20019;-85
2024/04/06 07:56:33;;;;;;;2.88;1.10;;;14.50;99.90;;;;;;5088611;28;20020;-83
2024/04/06 07:58:59;;;;;;;4.47;1.33;;;14.50;99.90;;;;;;5096904;28;20026;-84
2024/04/06 08:01:26;;;;;;;2.45;1.30;;;14.60;99.90;;;;;;5097083;28;20110;-85
2024/04/06 08:03:51;;;;;;;5.88;1.00;;;14.60;99.90;;;;;;5110022;28;20023;-87
2024/04/06 08:06:18;;;;;;;2.33;1.42;;;14.60;99.90;;;;;;5087647;28;20035;-88
2024/04/06 08:08:44;;;;;;;2.53;0.95;;;14.60;99.90;;;;;;5076704;28;20023;-87
2024/04/06 08:11:11;;;;;;;2.63;1.00;;;14.70;99.90;;;;;;5091680;28;20031;-88
2024/04/06 08:13:37;;;;;;;2.88;0.93;;;14.70;99.90;;;;;;5079647;28;20064;-90
2024/04/06 08:16:03;;;;;;;2.35;1.15;;;14.80;99.90;;;;;;5088934;28;20028;-88
2024/04/06 08:18:28;;;;;;;1.80;1.00;;;14.90;99.90;;;;;;5086282;28;20015;-82
2024/04/06 08:20:54;;;;;;;2.58;1.10;;;14.90;99.90;;;;;;5096185;28;20026;-79
2024/04/06 08:23:20;;;;;;;1.85;0.95;;;14.90;99.90;;;;;;5094957;28;20041;-81
2024/04/06 08:25:45;;;;;;;2.15;1.25;;;14.90;99.90;;;;;;5076195;28;20373;-85
2024/04/06 08:28:11;;;;;;;2.35;1.30;;;14.90;99.90;;;;;;5075459;28;20020;-81
2024/04/06 08:30:38;;;;;;;3.03;1.10;;;14.90;99.90;;;;;;5075932;28;20028;-84
2024/04/06 08:33:05;;;;;;;2.90;1.10;;;15.00;99.90;;;;;;5076007;28;20452;-89
2024/04/06 08:35:33;;;;;;;2.13;1.15;;;15.00;99.90;;;;;;5077084;28;20377;-87
2024/04/06 08:38:00;;;;;;;1.60;1.20;;;15.00;99.90;;;;;;5074975;28;20051;-88
2024/04/06 08:40:25;;;;;;;1.25;0.95;;;15.00;99.90;;;;;;5056036;28;20032;-85
2024/04/06 08:42:53;;;;;;;2.33;1.08;;;15.20;99.90;;;;;;5074017;28;20036;-83
2024/04/06 08:45:21;;;;;;;2.35;0.93;;;15.30;99.90;;;;;;5051599;28;20195;-82
2024/04/06 08:47:46;;;;;;;3.00;1.10;;;15.30;99.90;;;;;;5060932;28;20019;-84
2024/04/06 08:50:13;;;;;;;2.40;1.10;;;15.40;99.90;;;;;;5092481;28;20062;-87
2024/04/06 08:52:39;;;;;;;2.08;1.00;;;15.40;99.90;;;;;;5097391;28;20016;-81
2024/04/06 08:55:08;;;;;;;2.65;1.20;;;15.40;99.90;;;;;;5080892;28;20031;-81
2024/04/06 08:57:39;;;;;;;3.40;1.00;;;15.40;99.90;;;;;;5078915;28;20024;-81
2024/04/06 09:00:07;;;;;;;1.90;0.90;;;15.50;99.90;;;;;;5090048;28;20102;-81
2024/04/06 09:02:33;;;;;;;1.70;0.73;;;15.50;99.90;;;;;;5087470;28;20028;-84
2024/04/06 09:04:59;;;;;;;2.50;1.02;;;15.80;99.90;;;;;;5090939;28;20024;-83
2024/04/06 09:07:25;;;;;;;1.75;0.88;;;15.90;99.90;;;;;;5079119;28;20028;-83
2024/04/06 09:09:52;;;;;;;1.55;0.70;;;16.10;99.90;;;;;;5060172;28;20024;-82
2024/04/06 09:12:18;;;;;;;1.35;1.08;;;16.20;99.90;;;;;;5072401;28;20020;-82
2024/04/06 09:14:46;;;;;;;1.88;0.82;;;16.20;99.90;;;;;;5083547;28;20035;-85
2024/04/06 09:17:16;;;;;;;1.00;0.60;;;16.30;99.90;;;;;;5091479;28;20066;-87
2024/04/06 09:19:42;;;;;;;3.38;0.90;;;16.60;99.90;;;;;;5079209;28;20024;-83
2024/04/06 09:22:08;;;;;;;2.20;0.70;;;16.60;99.90;;;;;;5088146;28;20031;-82
2024/04/06 09:24:34;;;;;;;3.55;0.90;;;16.60;99.90;;;;;;5086053;28;20034;-82
2024/04/06 09:27:27;;;;;;;2.17;1.05;;;16.70;99.90;;;;;;5095482;28;20016;-82
2024/04/06 09:29:52;;;;;;;2.17;0.90;;;16.70;99.90;;;;;;5062703;28;20040;-81
2024/04/06 09:32:20;;;;;;;1.98;0.80;;;16.80;99.90;;;;;;5086502;28;20082;-89
2024/04/06 09:34:50;;;;;;;1.38;0.73;;;16.80;99.90;;;;;;5088094;28;20047;-84
2024/04/06 09:37:26;;;;;;;2.63;0.98;;;16.70;99.90;;;;;;5079515;28;20023;-86
2024/04/06 09:39:53;;;;;;;1.98;0.95;;;16.80;99.90;;;;;;5072218;28;20119;-86
2024/04/06 09:42:20;;;;;;;1.92;0.70;;;16.90;99.90;;;;;;5086036;28;20040;-82
2024/04/06 09:44:46;;;;;;;4.80;0.82;;;16.90;99.90;;;;;;5095159;28;20537;-82
2024/04/06 09:47:14;;;;;;;3.38;0.80;;;16.90;99.90;;;;;;5082243;28;20028;-88
2024/04/06 09:49:44;;;;;;;2.58;1.13;;;17.00;99.90;;;;;;5094818;28;20111;-82
2024/04/06 09:52:11;;;;;;;2.93;0.73;;;17.00;99.90;;;;;;5078122;28;20027;-83
2024/04/06 09:54:37;;;;;;;2.13;0.75;;;17.40;99.90;;;;;;5090277;28;20051;-82
2024/04/06 09:57:06;;;;;;;2.25;1.27;;;17.50;99.90;;;;;;5083464;28;20020;-85
2024/04/06 09:59:31;;;;;;;1.17;0.90;;;17.80;99.90;;;;;;5095273;28;20027;-86
2024/04/06 10:01:58;;;;;;;2.67;0.77;;;17.90;99.90;;;;;;5083633;28;20373;-85
2024/04/06 10:04:33;;;;;;;4.20;0.75;;;18.10;99.90;;;;;;5093217;28;20102;-86
2024/04/06 10:07:02;;;;;;;1.90;0.88;;;18.50;99.90;;;;;;5084137;28;20028;-94
2024/04/06 10:09:37;;;;;;;1.52;0.80;;;18.80;99.90;;;;;;5088248;28;20426;-83
2024/04/06 10:12:06;;;;;;;2.60;1.00;;;18.90;99.90;;;;;;5070883;28;20114;-81
2024/04/06 10:14:43;;;;;;;1.70;0.70;;;19.00;99.90;;;;;;5087362;28;20113;-86
2024/04/06 10:17:12;;;;;;;1.33;0.75;;;19.10;98.90;;;;;;5093753;28;20035;-83
2024/04/06 10:19:43;;;;;;;1.55;0.77;;;19.30;99.60;;;;;;5081366;28;20129;-87
2024/04/06 10:22:09;;;;;;;1.52;0.77;;;19.30;99.60;;;;;;5108467;28;20024;-83
2024/04/06 10:24:35;;;;;;;1.58;0.70;;;19.50;97.70;;;;;;5089154;28;20483;-83
2024/04/06 10:27:01;;;;;;;0.57;0.47;;;19.90;96.40;;;;;;5101037;28;20016;-87
2024/04/06 10:29:28;;;;;;;1.15;0.68;;;20.10;93.90;;;;;;5094872;28;20147;-84
2024/04/06 10:31:54;;;;;;;1.83;0.90;;;20.30;93.90;;;;;;5083523;28;20025;-83
2024/04/06 10:34:20;;;;;;;3.15;0.60;;;20.40;94.30;;;;;;5089123;28;20039;-86
2024/04/06 10:36:47;;;;;;;2.33;1.10;;;20.60;93.00;;;;;;5090712;28;20023;-84
2024/04/06 10:39:16;;;;;;;2.35;0.80;;;20.60;94.00;;;;;;5069992;28;20091;-84
2024/04/06 10:41:43;;;;;;;2.05;0.60;;;20.70;94.20;;;;;;5064843;28;20022;-84
2024/04/06 10:44:09;;;;;;;2.72;0.60;;;20.70;94.40;;;;;;5089828;28;20016;-87
2024/04/06 10:46:35;;;;;;;1.27;0.70;;;20.90;93.80;;;;;;5088728;28;20031;-85
2024/04/06 10:49:01;;;;;;;2.35;0.70;;;20.90;94.20;;;;;;5082779;28;20023;-92
2024/04/06 10:51:26;;;;;;;1.45;0.75;;;21.10;92.00;;;;;;5112013;28;20046;-82
2024/04/06 10:57:10;;;;;;;3.30;0.60;;;21.40;91.50;;;;;;5084444;28;20020;-84
2024/04/06 10:59:36;;;;;;;1.38;0.70;;;21.70;85.90;;;;;;5093826;28;20495;-89
2024/04/06 11:02:02;;;;;;;1.67;0.60;;;21.70;85.20;;;;;;5083616;28;20058;-84
2024/04/06 11:04:27;;;;;;;2.40;0.70;;;21.80;85.80;;;;;;5099138;28;20015;-84
2024/04/06 11:06:55;;;;;;;1.25;0.68;;;21.90;81.80;;;;;;5098727;28;20023;-84
2024/04/06 11:09:21;;;;;;;0.77;0.55;;;22.00;83.20;;;;;;5097279;28;20034;-84
2024/04/06 11:11:47;;;;;;;1.73;0.60;;;22.00;83.60;;;;;;5081840;28;20063;-86
2024/04/06 11:14:12;;;;;;;2.20;0.70;;;22.00;83.20;;;;;;5088612;28;20111;-83
2024/04/06 11:16:41;;;;;;;2.40;0.65;;;22.10;80.20;;;;;;5088568;28;20032;-87
2024/04/06 11:19:08;;;;;;;0.98;0.73;;;22.20;80.20;;;;;;5081650;28;20020;-85
2024/04/06 11:21:34;;;;;;;1.35;0.60;;;22.20;80.30;;;;;;5079986;28;20453;-84
2024/04/06 11:24:00;;;;;;;1.00;0.70;;;22.30;78.60;;;;;;5090855;28;20016;-85
2024/04/06 11:26:25;;;;;;;3.53;0.73;;;22.30;78.00;;;;;;5104515;28;20019;-88
2024/04/06 11:28:51;;;;;;;2.22;0.65;;;22.40;77.00;;;;;;5083675;28;20020;-84
2024/04/06 11:31:21;;;;;;;1.95;0.57;;;22.50;77.40;;;;;;5093728;28;20024;-84
2024/04/06 11:33:47;;;;;;;0.52;0.40;;;22.50;78.40;;;;;;5094709;28;20020;-84
2024/04/06 11:36:13;;;;;;;3.20;0.70;;;22.60;75.60;;;;;;5084593;28;20024;-83
2024/04/06 11:38:38;;;;;;;1.40;0.60;;;22.50;75.10;;;;;;5079016;28;20020;-88
2024/04/06 11:41:04;;;;;;;1.33;0.60;;;22.50;76.00;;;;;;5056259;28;20028;-85
2024/04/06 11:43:29;;;;;;;0.88;0.50;;;22.60;74.70;;;;;;5109233;28;20464;-85
2024/04/06 11:45:55;;;;;;;0.50;0.40;;;22.60;74.70;;;;;;5081405;28;20104;-85
2024/04/06 11:48:23;;;;;;;2.38;0.50;;;22.40;77.50;;;;;;5097079;28;20364;-84
2024/04/06 11:50:49;;;;;;;3.25;0.47;;;22.40;75.50;;;;;;5083264;28;20032;-85
2024/04/06 11:53:15;;;;;;;0.82;0.50;;;22.60;68.90;;;;;;5076012;28;20023;-84
2024/04/06 11:55:41;;;;;;;2.00;0.50;;;22.70;67.10;;;;;;5079875;28;20073;-85
2024/04/06 11:58:06;;;;;;;1.35;0.40;;;22.80;67.50;;;;;;5088892;28;20016;-84
2024/04/06 12:00:32;;;;;;;1.00;0.65;;;22.90;65.20;;;;;;5075850;28;20028;-84
2024/04/06 12:02:58;;;;;;;0.70;0.57;;;22.90;63.90;;;;;;5084324;28;20069;-85
2024/04/06 12:05:24;;;;;;;1.23;0.60;;;23.10;64.20;;;;;;5076872;28;20031;-84
2024/04/06 12:07:53;;;;;;;1.20;0.55;;;23.20;63.30;;;;;;5074436;28;20441;-86
2024/04/06 12:10:22;;;;;;;0.60;0.60;;;23.30;62.10;;;;;;5088994;28;20032;-84
2024/04/06 12:12:48;;;;;;;3.15;0.40;;;23.50;61.90;;;;;;5072988;28;20024;-85
2024/04/06 12:15:13;;;;;;;0.98;0.50;;;23.70;62.30;;;;;;5075474;28;20019;-84
2024/04/06 12:17:39;;;;;;;0.85;0.43;;;23.80;62.20;;;;;;5079075;28;20084;-89
2024/04/06 12:20:05;;;;;;;1.15;0.52;;;23.90;61.90;;;;;;5088532;28;20189;-92
2024/04/06 12:22:31;;;;;;;0.70;0.50;;;24.00;60.90;;;;;;5086456;28;20016;-90
2024/04/06 12:24:57;;;;;;;1.95;0.50;;;24.10;61.40;;;;;;5081637;28;20034;-90
2024/04/06 12:27:22;;;;;;;0.65;0.50;;;24.20;61.10;;;;;;5091802;28;20519;-91
2024/04/06 12:29:51;;;;;;;1.77;0.52;;;24.20;62.00;;;;;;5098409;28;20059;-92
2024/04/06 12:32:17;;;;;;;2.03;0.65;;;24.40;60.40;;;;;;5086962;28;20020;-93
2024/04/06 12:34:43;;;;;;;1.13;0.43;;;24.50;60.10;;;;;;5088326;28;20418;-90
2024/04/06 12:37:13;;;;;;;0.98;0.50;;;24.80;60.20;;;;;;5079798;28;20020;-91
2024/04/06 12:39:40;;;;;;;1.55;0.50;;;25.00;57.40;;;;;;5090893;28;20024;-92
2024/04/06 12:42:06;;;;;;;1.30;0.70;;;25.30;56.90;;;;;;5088873;28;20036;-89
2024/04/06 12:44:33;;;;;;;2.63;0.63;;;25.50;56.90;;;;;;5081696;28;20036;-88
2024/04/06 12:46:59;;;;;;;0.73;0.50;;;25.70;55.60;;;;;;5089704;28;20164;-92